Quaker City, OH (43773)

8:25 PM EDT on August 21, 2014 (GMT -0400)
Downtown Cambridge | Change Station
CLOSE
Current Station
Personal Weather Station
Location: Cambridge, OH
Elevation: 876 ft
Nearby Weather Stations

Elev 876 ft 40.03 °N, 81.59 °W | Updated 0 second ago

Overcast
Overcast
72.0 °F
Feels Like 70 °F
N
0.0
Wind Variable Wind from SW
Gusts 4.0 mph

Today
High -- | Low -- °F
--% Chance of Precip.
Yesterday
High -- | Low -- °F
Precip. -- in
6:42 AM 8:13 PM
Waning Crescent, 11% visible
Pressure 30.02 in
Visibility 10.0 miles
Clouds Few 3000 ft
Overcast 3500 ft
Heat Index 70 °F
Dew Point 68 °F
Humidity 87%
Rainfall 0.11 in
Snow Depth Not available.
UV 0 out of 12
Pollen 8.70 out of 12
Air Quality Not available.
Flu Activity Not available.
METAR KPHD 212353Z AUTO 00000KT 10SM FEW030 OVC035 22/21 A3003 RMK AO2 SLP165 T02220206 10239 20222 50003

More Conditions Fewer Conditions

Pressure 30.02 in
Visibility 10.0 miles
Clouds Few 3000 ft
Overcast 3500 ft
Heat Index 70 °F
Dew Point 68 °F
Humidity 87%
Rainfall 0.11 in
Snow Depth Not available.
UV 0 out of 12
Pollen 8.70 out of 12
Air Quality Not available.
Flu Activity Not available.
METAR KPHD 212353Z AUTO 00000KT 10SM FEW030 OVC035 22/21 A3003 RMK AO2 SLP165 T02220206 10239 20222 50003

More Conditions Fewer Conditions

10-Day Weather Forecast

Almanac

Astronomy

Aug. 21, 2014 Rise Set
Actual Time 6:42 AM EDT 8:13 PM EDT
Civil Twilight 6:13 AM EDT 8:41 PM EDT
Nautical Twilight 5:39 AM EDT 9:16 PM EDT
Astronomical Twilight 5:03 AM EDT 9:52 PM EDT
Moon 3:11 AM EDT (8/21) 5:41 PM EDT (8/21)
Length of Visible Light 14h 27m
Length of Day
13h 30m
Tomorrow will be 2m 24s shorter.
Waning Crescent, 11% of the Moon is Illuminated
Today
Waning Crescent
Aug 25
New
Sep 2
First Quarter
Sep 8
Full
Sep 15
Last Quarter

Today's Extremes

State Highs State Lows

Community

WunderPhotos

Upload Photos

1,746,075 photos uploaded!

Nearby

Snow Depth

Station Depth Elevation
No new snow has been reported.

Earthquake Activity

City Distance Mag. Time & Date
No recent earthquake activity has been reported nearby.
Minimum magnitude displayed is 2.5.

Coastal Water Temperatures

Place Temperature
No Stations Reporting

Nearby Weather Stations